Date,TemperatureHighF,TemperatureAvgF,TemperatureLowF,DewpointHighF,DewpointAvgF,DewpointLowF,HumidityHigh,HumidityAvg,HumidityLow,PressureMaxIn,PressureMinIn,WindSpeedMaxMPH,WindSpeedAvgMPH,GustSpeedMaxMPH,PrecipitationSumIn
2012-12-1,59.9,58.2,57.2,58.2,56.8,55.6,97,95,91,29.84,29.78,1,0,0,0.57
2012-12-2,62.2,55.8,44.6,59.8,53.2,43.3,97,91,72,29.99,29.66,13,1,22,0.48
2012-12-3,60.2,48.7,39.5,51.2,45.1,38.5,100,88,67,30.07,29.98,0,0,0,0.01
2012-12-4,61.8,54.2,46.1,56.6,50.6,44.7,97,88,60,30.10,30.01,3,0,0,0.00
2012-12-5,62.3,59.6,57.4,61.3,58.4,56.4,98,96,87,30.03,29.94,1,0,0,0.33
2012-12-6,60.1,54.3,48.7,56.7,51.1,47.4,97,90,70,30.01,29.94,2,0,0,0.00
2012-12-9,66.2,54.2,42.7,49.3,43.5,40.4,93,70,41,30.06,29.95,1,0,0,0.00
2012-12-10,67.6,50.2,41.1,51.4,43.2,39.3,97,80,44,30.09,29.97,3,0,0,0.00
2012-12-11,59.7,48.4,37.6,52.7,44.5,36.1,100,87,71,29.97,29.73,1,0,0,0.00
2012-12-12,53.0,47.1,37.7,48.2,43.5,36.1,96,88,67,29.78,29.70,5,0,0,0.12
2012-12-13,52.8,42.1,34.9,42.5,37.7,33.6,96,85,59,29.79,29.70,3,0,0,0.01
2012-12-14,52.3,46.0,38.9,46.4,41.8,37.0,97,86,66,29.89,29.70,1,0,0,0.01
2012-12-15,44.0,36.8,33.8,42.9,35.5,32.4,97,95,93,29.94,29.87,0,0,0,0.00
2012-12-16,55.3,53.8,43.0,52.3,50.5,41.9,97,89,84,29.94,29.89,6,0,0,0.01
2012-12-17,56.7,51.8,43.3,54.4,49.4,40.6,97,92,79,29.94,29.84,2,0,0,0.40
2012-12-18,51.9,43.9,34.0,40.6,35.8,32.2,95,75,50,30.00,29.86,6,1,14,0.00
2012-12-22,53.4,50.9,49.4,48.6,47.8,47.3,95,89,81,29.95,29.88,3,0,0,1.21
2012-12-23,52.9,49.6,44.8,51.5,47.7,43.5,96,93,90,29.95,29.80,1,0,0,3.02
2012-12-24,55.3,45.5,39.4,49.1,42.4,37.8,97,89,69,30.07,29.89,2,0,0,0.00
2012-12-25,49.4,41.8,38.1,47.7,40.6,36.8,100,96,94,30.02,29.72,0,0,0,0.64
2012-12-26,51.9,51.2,50.1,49.2,47.5,45.6,94,87,80,29.88,29.85,6,1,0,0.25
2012-12-27,54.1,49.5,40.1,42.8,41.4,39.1,96,74,58,30.02,29.97,2,0,0,0.00
2012-12-28,52.0,46.4,43.7,43.2,41.8,40.4,95,85,66,29.94,29.88,2,0,0,0.06
2012-12-29,51.7,43.8,35.9,44.5,41.2,34.6,100,91,70,29.94,29.86,3,0,0,0.26
2012-12-30,49.8,37.8,33.5,45.8,36.4,32.4,100,95,79,29.97,29.90,2,0,0,0.01
2012-12-31,44.2,42.8,41.1,35.7,34.6,33.9,81,73,67,30.15,30.14,0,0,0,0.00